createdAt,value
2018-03-07T00:02:09.119Z,3.70
2018-03-07T00:04:36.807Z,3.68
2018-03-07T00:07:04.454Z,3.65
2018-03-07T00:09:32.138Z,3.58
2018-03-07T00:11:59.802Z,3.57
2018-03-07T00:14:27.615Z,3.60
2018-03-07T00:16:55.250Z,3.58
2018-03-07T00:19:22.920Z,3.62
2018-03-07T00:21:50.558Z,3.60
2018-03-07T00:36:16.900Z,3.46
2018-03-07T00:38:44.544Z,3.47
2018-03-07T00:41:12.221Z,3.29
2018-03-07T00:43:39.871Z,3.37
2018-03-07T00:46:07.544Z,3.34
2018-03-07T00:48:35.182Z,3.28
2018-03-07T00:51:02.856Z,3.39
2018-03-07T00:53:30.487Z,3.41
2018-03-07T00:55:58.178Z,3.42
2018-03-07T00:58:25.863Z,3.37
2018-03-07T01:00:53.562Z,3.37
2018-03-07T01:03:21.289Z,3.38
2018-03-07T01:05:49.104Z,3.31
2018-03-07T01:08:16.862Z,3.30
2018-03-07T01:10:44.585Z,3.27
2018-03-07T01:13:12.223Z,3.22
2018-03-07T01:15:39.879Z,3.18
2018-03-07T01:18:07.564Z,3.26
2018-03-07T01:20:35.243Z,3.26
2018-03-07T01:23:02.939Z,3.37
2018-03-07T01:25:30.613Z,3.34
2018-03-07T01:27:58.292Z,3.34
2018-03-07T01:30:25.997Z,3.38
2018-03-07T01:32:53.683Z,3.43
2018-03-07T01:35:21.485Z,3.44
2018-03-07T01:37:49.200Z,3.44
2018-03-07T01:40:16.854Z,3.42
2018-03-07T01:42:44.562Z,3.39
2018-03-07T01:45:12.335Z,3.42
2018-03-07T01:47:40.146Z,3.44
2018-03-07T01:50:07.791Z,3.47
2018-03-07T01:52:35.485Z,3.45
2018-03-07T01:55:03.146Z,3.46
2018-03-07T01:57:30.843Z,3.49
2018-03-07T01:59:58.487Z,3.52
2018-03-07T02:02:26.380Z,3.53
2018-03-07T02:04:54.041Z,3.54
2018-03-07T02:07:21.906Z,3.54
2018-03-07T02:09:49.555Z,3.52
2018-03-07T02:12:17.261Z,3.51
2018-03-07T02:14:45.005Z,3.50
2018-03-07T02:17:12.656Z,3.48
2018-03-07T02:19:40.423Z,3.51
2018-03-07T02:22:08.078Z,3.52
2018-03-07T02:24:35.771Z,3.48
2018-03-07T02:27:03.410Z,3.53
2018-03-07T02:29:31.106Z,3.54
2018-03-07T02:31:58.762Z,3.50
2018-03-07T02:34:26.454Z,3.47
2018-03-07T02:36:54.109Z,3.47
2018-03-07T02:39:21.870Z,3.41
2018-03-07T02:41:49.554Z,3.45
2018-03-07T02:44:17.248Z,3.45
2018-03-07T02:46:44.896Z,3.44
2018-03-07T02:49:12.586Z,3.44
2018-03-07T02:51:40.229Z,3.43
2018-03-07T02:54:07.930Z,3.43
2018-03-07T02:56:35.576Z,3.35
2018-03-07T02:59:04.369Z,3.42
2018-03-07T03:01:32.115Z,3.42
2018-03-07T03:03:59.806Z,3.36
2018-03-07T03:06:27.451Z,3.33
2018-03-07T03:08:55.133Z,3.33
2018-03-07T03:11:22.788Z,3.37
2018-03-07T03:13:50.482Z,3.38
2018-03-07T03:16:18.154Z,3.35
2018-03-07T03:18:45.844Z,3.33
2018-03-07T03:21:13.484Z,3.34
2018-03-07T03:23:41.178Z,3.39
2018-03-07T03:26:08.826Z,3.36
2018-03-07T03:28:36.518Z,3.35
2018-03-07T03:31:04.222Z,3.43
2018-03-07T03:33:31.856Z,3.36
2018-03-07T03:35:59.529Z,3.34
2018-03-07T03:38:27.214Z,3.33
2018-03-07T03:40:54.847Z,3.34
2018-03-07T03:43:22.486Z,3.39
2018-03-07T03:45:50.202Z,3.35
2018-03-07T03:48:17.971Z,3.29
2018-03-07T03:50:45.608Z,3.42
2018-03-07T03:53:13.288Z,3.44
2018-03-07T03:55:40.993Z,3.41
2018-03-07T03:58:08.677Z,3.39
2018-03-07T04:00:36.409Z,3.36
2018-03-07T04:03:04.055Z,3.36
2018-03-07T04:05:31.735Z,3.39
2018-03-07T04:07:59.414Z,3.42
2018-03-07T04:10:27.110Z,3.41
2018-03-07T04:12:54.803Z,3.46
2018-03-07T04:15:22.647Z,3.50
2018-03-07T04:17:50.293Z,3.43
2018-03-07T04:20:18.043Z,3.41
2018-03-07T04:22:45.682Z,3.43
2018-03-07T04:25:13.440Z,3.43
2018-03-07T04:27:41.113Z,3.41
2018-03-07T04:30:08.784Z,3.43
2018-03-07T04:32:36.502Z,3.44
2018-03-07T04:35:04.173Z,3.44
2018-03-07T04:37:31.861Z,3.41
2018-03-07T04:39:59.550Z,3.37
2018-03-07T04:42:27.284Z,3.38
2018-03-07T04:44:54.950Z,3.35
2018-03-07T04:47:23.586Z,3.37
2018-03-07T04:49:51.280Z,3.36
2018-03-07T04:52:18.999Z,3.44
2018-03-07T04:54:46.698Z,3.47
2018-03-07T04:57:14.363Z,3.49
2018-03-07T04:59:42.049Z,3.53
2018-03-07T05:02:09.710Z,3.44
2018-03-07T05:04:37.389Z,3.28
2018-03-07T05:07:05.056Z,3.13
2018-03-07T05:09:32.762Z,3.02
2018-03-07T05:12:00.404Z,3.09
2018-03-07T05:14:28.088Z,3.21
2018-03-07T05:16:55.755Z,3.36
2018-03-07T05:19:23.483Z,3.48
2018-03-07T05:21:51.208Z,3.46
2018-03-07T05:24:18.862Z,3.44
2018-03-07T05:26:46.634Z,3.44
2018-03-07T05:29:14.297Z,3.31
2018-03-07T05:31:41.995Z,3.04
2018-03-07T05:34:09.665Z,2.92
2018-03-07T05:36:37.369Z,2.75
2018-03-07T05:39:05.059Z,2.67
2018-03-07T05:41:32.782Z,2.62
2018-03-07T05:44:00.414Z,2.58
2018-03-07T05:46:28.117Z,2.58
2018-03-07T05:48:55.759Z,2.55
2018-03-07T05:51:23.483Z,2.65
2018-03-07T05:53:51.169Z,2.62
2018-03-07T05:56:18.802Z,2.58
2018-03-07T05:58:47.411Z,2.64
2018-03-07T06:01:15.102Z,2.66
2018-03-07T06:03:42.826Z,2.72
2018-03-07T06:06:14.620Z,2.76
2018-03-07T06:08:43.358Z,2.73
2018-03-07T06:11:11.050Z,2.76
2018-03-07T06:13:38.677Z,2.79
2018-03-07T06:16:06.369Z,2.79
2018-03-07T06:18:33.995Z,2.78
2018-03-07T06:21:01.694Z,2.80
2018-03-07T06:23:29.349Z,2.83
2018-03-07T06:25:57.037Z,2.85
2018-03-07T06:28:24.722Z,2.86
2018-03-07T06:30:52.429Z,2.89
2018-03-07T06:33:20.066Z,2.89
2018-03-07T06:35:47.769Z,2.90
2018-03-07T06:38:15.432Z,2.86
2018-03-07T06:40:43.134Z,2.88
2018-03-07T06:43:10.798Z,2.87
2018-03-07T06:45:38.507Z,2.86
2018-03-07T06:48:06.142Z,2.87
2018-03-07T06:50:33.838Z,2.90
2018-03-07T06:53:01.543Z,2.90
2018-03-07T06:55:29.189Z,2.94
2018-03-07T06:57:56.908Z,2.96
2018-03-07T07:00:24.596Z,2.99
2018-03-07T07:02:52.290Z,3.03
2018-03-07T07:05:20.022Z,3.05
2018-03-07T07:07:47.708Z,3.09
2018-03-07T07:10:15.363Z,3.14
2018-03-07T07:12:43.075Z,3.16
2018-03-07T07:15:10.703Z,3.20
2018-03-07T07:17:38.394Z,3.17
2018-03-07T07:20:06.632Z,3.18
2018-03-07T07:22:34.588Z,3.21
2018-03-07T07:25:02.463Z,3.18
2018-03-07T07:27:30.444Z,3.17
2018-03-07T07:29:58.416Z,3.15
2018-03-07T07:32:26.417Z,3.17
2018-03-07T07:34:54.467Z,3.16
2018-03-07T07:37:22.342Z,3.21
2018-03-07T07:39:50.276Z,3.22
2018-03-07T07:42:18.167Z,3.28
2018-03-07T07:44:46.103Z,3.33
2018-03-07T07:47:15.140Z,3.33
2018-03-07T07:49:43.096Z,3.34
2018-03-07T07:52:10.867Z,3.36
2018-03-07T07:54:38.642Z,3.44
2018-03-07T07:57:06.431Z,3.48
2018-03-07T07:59:34.327Z,3.49
2018-03-07T08:02:02.264Z,3.50
2018-03-07T08:04:29.928Z,3.51
2018-03-07T08:06:57.669Z,3.53
2018-03-07T08:09:25.379Z,3.54
2018-03-07T08:11:53.123Z,3.48
2018-03-07T08:14:20.803Z,3.47
2018-03-07T08:16:48.531Z,3.49
2018-03-07T08:19:16.193Z,3.41
2018-03-07T08:21:43.867Z,3.42
2018-03-07T08:24:11.589Z,3.42
2018-03-07T08:26:39.359Z,3.41
2018-03-07T08:29:07.043Z,3.26
2018-03-07T08:31:34.743Z,3.37
2018-03-07T08:34:02.534Z,3.27
2018-03-07T08:36:30.250Z,3.21
2018-03-07T08:38:57.958Z,3.21
2018-03-07T08:41:25.876Z,3.20
2018-03-07T08:43:53.581Z,3.12
2018-03-07T08:46:21.305Z,3.11
2018-03-07T08:48:49.101Z,3.13
2018-03-07T08:51:16.790Z,3.13
2018-03-07T08:53:44.511Z,3.18
2018-03-07T08:56:12.217Z,3.17
2018-03-07T08:58:39.878Z,3.28
2018-03-07T09:01:07.575Z,3.43
2018-03-07T09:03:35.254Z,3.52
2018-03-07T09:06:02.959Z,3.53
2018-03-07T09:08:30.629Z,3.57
2018-03-07T09:10:58.634Z,3.59
2018-03-07T09:13:26.304Z,3.60
2018-03-07T09:15:53.984Z,3.64
2018-03-07T09:18:22.402Z,3.62
2018-03-07T09:20:50.162Z,3.62
2018-03-07T09:23:17.855Z,3.63
2018-03-07T09:25:45.622Z,3.62
2018-03-07T09:28:13.466Z,3.61
2018-03-07T09:30:41.159Z,3.68
2018-03-07T09:33:08.882Z,3.69
2018-03-07T09:35:36.526Z,3.80
2018-03-07T09:38:04.264Z,3.74
2018-03-07T09:40:31.964Z,3.72
2018-03-07T09:42:59.714Z,3.70
2018-03-07T09:45:27.382Z,3.70
2018-03-07T09:47:55.109Z,3.80
2018-03-07T09:50:22.786Z,3.78
2018-03-07T09:52:50.469Z,3.87
2018-03-07T09:55:18.186Z,3.99
2018-03-07T09:57:46.043Z,4.02
2018-03-07T10:00:13.727Z,3.98
2018-03-07T10:02:41.401Z,3.92
2018-03-07T10:05:09.107Z,3.95
2018-03-07T10:07:36.826Z,3.91
2018-03-07T10:10:04.650Z,4.06
2018-03-07T10:12:32.366Z,4.02
2018-03-07T10:15:00.165Z,4.10
2018-03-07T10:17:27.944Z,4.12
2018-03-07T10:19:55.660Z,4.13
2018-03-07T10:22:23.355Z,4.10
2018-03-07T10:24:51.067Z,4.11
2018-03-07T10:27:18.758Z,4.13
2018-03-07T10:29:46.555Z,4.09
2018-03-07T10:32:14.354Z,4.20
2018-03-07T10:34:42.068Z,4.14
2018-03-07T10:37:09.914Z,4.21
2018-03-07T10:39:37.704Z,4.18
2018-03-07T10:42:05.486Z,4.09
2018-03-07T10:44:33.274Z,4.08
2018-03-07T10:47:01.014Z,4.02
2018-03-07T10:49:28.725Z,4.11
2018-03-07T10:51:56.381Z,4.04
2018-03-07T10:54:24.098Z,4.02
2018-03-07T10:56:51.795Z,4.06
2018-03-07T10:59:19.509Z,4.09
2018-03-07T11:01:47.165Z,4.18
2018-03-07T11:04:14.839Z,4.01
2018-03-07T11:06:42.482Z,4.11
2018-03-07T11:09:10.219Z,4.02
2018-03-07T11:11:38.045Z,4.20
2018-03-07T11:14:05.766Z,4.29
2018-03-07T11:16:33.477Z,4.24
2018-03-07T11:19:01.297Z,4.18
2018-03-07T11:21:29.106Z,4.18
2018-03-07T11:23:56.900Z,4.30
2018-03-07T11:26:24.642Z,4.26
2018-03-07T11:28:52.487Z,4.30
2018-03-07T11:31:20.389Z,4.26
2018-03-07T11:33:48.241Z,4.27
2018-03-07T11:36:15.898Z,4.34
2018-03-07T11:38:43.711Z,4.30
2018-03-07T11:41:11.470Z,4.45
2018-03-07T11:43:39.203Z,4.44
2018-03-07T11:46:06.939Z,4.33
2018-03-07T11:48:34.754Z,4.44
2018-03-07T11:51:02.410Z,4.45
2018-03-07T11:53:30.137Z,4.53
2018-03-07T11:55:57.841Z,4.37
2018-03-07T11:58:25.575Z,4.37
2018-03-07T12:00:53.338Z,4.44
2018-03-07T12:03:21.068Z,4.53
2018-03-07T12:05:48.726Z,4.44
2018-03-07T12:08:17.442Z,4.44
2018-03-07T12:10:45.332Z,4.41
2018-03-07T12:13:13.242Z,4.36
2018-03-07T12:15:40.967Z,4.39
2018-03-07T12:18:08.657Z,4.44
2018-03-07T12:20:36.450Z,4.40
2018-03-07T12:23:04.131Z,4.49
2018-03-07T12:25:31.935Z,4.35
2018-03-07T12:27:59.610Z,4.38
2018-03-07T12:30:27.338Z,4.37
2018-03-07T12:32:55.139Z,4.49
2018-03-07T12:35:22.994Z,4.36
2018-03-07T12:37:50.827Z,4.29
2018-03-07T12:40:18.548Z,4.28
2018-03-07T12:42:46.435Z,4.22
2018-03-07T12:45:14.107Z,4.22
2018-03-07T12:47:42.025Z,4.18
2018-03-07T12:50:09.670Z,4.23
2018-03-07T12:52:37.391Z,4.18
2018-03-07T12:55:05.258Z,4.20
2018-03-07T12:57:33.032Z,4.12
2018-03-07T13:00:00.711Z,4.10
2018-03-07T13:02:28.418Z,3.91
2018-03-07T13:04:56.104Z,3.95
2018-03-07T13:07:23.821Z,4.03
2018-03-07T13:09:51.659Z,4.01
2018-03-07T13:12:19.627Z,3.88
2018-03-07T13:14:47.428Z,3.89
2018-03-07T13:17:15.120Z,3.92
2018-03-07T13:19:42.899Z,3.88
2018-03-07T13:22:10.516Z,3.91
2018-03-07T13:24:38.388Z,3.95
2018-03-07T13:27:06.228Z,3.89
2018-03-07T13:29:33.933Z,3.98
2018-03-07T13:32:01.741Z,3.96
2018-03-07T13:34:29.654Z,4.00
2018-03-07T13:36:57.438Z,3.96
2018-03-07T13:39:25.167Z,3.99
2018-03-07T13:41:52.815Z,4.05
2018-03-07T13:44:20.530Z,3.96
2018-03-07T13:46:48.226Z,3.78
2018-03-07T13:49:16.087Z,3.82
2018-03-07T13:51:43.803Z,3.90
2018-03-07T13:54:11.650Z,3.76
2018-03-07T13:56:39.492Z,3.78
2018-03-07T13:59:07.160Z,3.77
2018-03-07T14:01:34.860Z,3.78
2018-03-07T14:04:02.511Z,3.80
2018-03-07T14:06:30.300Z,3.93
2018-03-07T14:08:57.964Z,3.96
2018-03-07T14:11:25.762Z,3.79
2018-03-07T14:13:53.418Z,3.81
2018-03-07T14:16:21.134Z,3.67
2018-03-07T14:18:48.821Z,3.61
2018-03-07T14:21:16.627Z,3.63
2018-03-07T14:23:44.458Z,3.57
2018-03-07T14:26:12.266Z,3.64
2018-03-07T14:28:40.156Z,3.61
2018-03-07T14:31:07.949Z,3.68
2018-03-07T14:33:35.722Z,3.62
2018-03-07T14:36:03.571Z,3.63
2018-03-07T14:38:31.407Z,3.70
2018-03-07T14:40:59.190Z,3.76
2018-03-07T14:43:26.868Z,3.71
2018-03-07T14:45:54.686Z,3.75
2018-03-07T14:48:22.499Z,3.64
2018-03-07T14:50:50.322Z,3.71
2018-03-07T14:53:18.074Z,3.80
2018-03-07T14:55:45.902Z,3.73
2018-03-07T14:58:13.575Z,3.61
2018-03-07T15:00:41.322Z,3.68
2018-03-07T15:03:09.040Z,3.82
2018-03-07T15:05:36.829Z,3.82
2018-03-07T15:08:04.536Z,3.64
2018-03-07T15:10:32.231Z,3.66
2018-03-07T15:12:59.987Z,3.66
2018-03-07T15:15:27.702Z,3.69
2018-03-07T15:17:55.391Z,3.59
2018-03-07T15:20:23.077Z,3.48
2018-03-07T15:22:51.973Z,3.49
2018-03-07T15:25:19.656Z,3.39
2018-03-07T15:27:47.362Z,3.40
2018-03-07T15:30:15.042Z,3.34
2018-03-07T15:32:42.805Z,3.38
2018-03-07T15:35:10.492Z,3.32
2018-03-07T15:37:38.241Z,3.26
2018-03-07T15:40:06.058Z,3.20
2018-03-07T15:42:33.733Z,3.15
2018-03-07T15:45:01.490Z,3.17
2018-03-07T15:47:29.148Z,3.18
2018-03-07T15:49:56.870Z,3.16
2018-03-07T15:52:24.555Z,3.19
2018-03-07T15:54:52.322Z,3.17
2018-03-07T15:57:20.059Z,3.18
2018-03-07T15:59:47.783Z,3.19
2018-03-07T16:02:15.495Z,3.21
2018-03-07T16:04:43.149Z,3.15
2018-03-07T16:07:10.903Z,3.15
2018-03-07T16:09:38.623Z,3.20
2018-03-07T16:12:06.374Z,3.15
2018-03-07T16:14:34.092Z,3.21
2018-03-07T16:17:01.852Z,3.17
2018-03-07T16:19:29.482Z,3.12
2018-03-07T16:21:57.318Z,3.11
2018-03-07T16:24:25.076Z,3.13
2018-03-07T16:26:52.883Z,3.19
2018-03-07T16:29:20.646Z,3.35
2018-03-07T16:31:48.378Z,3.59
2018-03-07T16:34:16.202Z,3.55
2018-03-07T16:36:43.894Z,3.48
2018-03-07T16:39:11.658Z,3.27
2018-03-07T16:41:39.343Z,3.33
2018-03-07T16:44:07.182Z,3.36
2018-03-07T16:46:34.938Z,3.36
2018-03-07T16:49:02.831Z,3.30
2018-03-07T16:51:30.537Z,3.27
2018-03-07T16:53:58.216Z,3.23
2018-03-07T16:56:25.947Z,3.27
2018-03-07T16:58:53.651Z,3.22
2018-03-07T17:01:21.504Z,3.18
2018-03-07T17:03:49.238Z,3.12
2018-03-07T17:06:16.898Z,3.16
2018-03-07T17:08:44.595Z,3.14
2018-03-07T17:11:12.374Z,3.18
2018-03-07T17:13:40.071Z,3.28
2018-03-07T17:16:07.722Z,3.15
2018-03-07T17:18:35.425Z,3.13
2018-03-07T17:21:03.846Z,3.08
2018-03-07T17:23:31.525Z,3.08
2018-03-07T17:25:59.164Z,3.18
2018-03-07T17:28:26.898Z,3.18
2018-03-07T17:30:54.552Z,3.09
2018-03-07T17:33:22.218Z,3.15
2018-03-07T17:35:49.859Z,3.15
2018-03-07T17:38:17.545Z,3.16
2018-03-07T17:40:45.188Z,3.02
2018-03-07T17:43:12.902Z,3.03
2018-03-07T17:45:40.549Z,3.01
2018-03-07T17:48:08.230Z,3.11
2018-03-07T17:50:35.902Z,3.12
2018-03-07T17:53:03.600Z,3.16
2018-03-07T17:55:31.281Z,3.22
2018-03-07T17:57:58.965Z,3.14
2018-03-07T18:00:26.843Z,3.04
2018-03-07T18:02:54.848Z,3.05
2018-03-07T18:05:22.673Z,3.09
2018-03-07T18:07:50.610Z,3.08
2018-03-07T18:10:18.519Z,3.07
2018-03-07T18:12:46.457Z,3.11
2018-03-07T18:15:14.140Z,3.06
2018-03-07T18:17:41.911Z,3.07
2018-03-07T18:20:09.576Z,3.10
2018-03-07T18:22:37.301Z,3.09
2018-03-07T18:25:05.128Z,3.07
2018-03-07T18:27:32.934Z,3.12
2018-03-07T18:30:00.691Z,3.09
2018-03-07T18:32:28.506Z,3.13
2018-03-07T18:34:56.302Z,3.12
2018-03-07T18:37:24.088Z,3.19
2018-03-07T18:39:51.919Z,3.19
2018-03-07T18:42:19.610Z,3.21
2018-03-07T18:44:47.427Z,3.21
2018-03-07T18:47:15.172Z,3.25
2018-03-07T18:49:43.001Z,3.26
2018-03-07T18:52:10.748Z,3.25
2018-03-07T18:54:38.561Z,3.24
2018-03-07T18:57:06.314Z,3.25
2018-03-07T18:59:34.139Z,3.26
2018-03-07T19:02:01.874Z,3.29
2018-03-07T19:04:29.707Z,3.23
2018-03-07T19:06:57.463Z,3.31
2018-03-07T19:09:26.210Z,3.28
2018-03-07T19:11:53.875Z,3.27
2018-03-07T19:14:21.586Z,3.44
2018-03-07T19:16:49.491Z,3.48
2018-03-07T19:19:17.327Z,3.52
2018-03-07T19:21:45.097Z,3.51
2018-03-07T19:24:12.946Z,3.46
2018-03-07T19:26:40.726Z,3.48
2018-03-07T19:29:08.598Z,3.38
2018-03-07T19:31:36.367Z,3.27
2018-03-07T19:34:04.154Z,3.27
2018-03-07T19:36:31.902Z,3.23
2018-03-07T19:38:59.720Z,3.23
2018-03-07T19:41:27.470Z,3.18
2018-03-07T19:43:55.296Z,3.28
2018-03-07T19:46:23.030Z,3.27
2018-03-07T19:48:50.873Z,3.18
2018-03-07T19:51:18.710Z,3.15
2018-03-07T19:53:46.549Z,3.18
2018-03-07T19:56:14.271Z,3.26
2018-03-07T19:58:42.097Z,3.26
2018-03-07T20:01:09.843Z,3.33
2018-03-07T20:03:37.665Z,3.39
2018-03-07T20:06:05.440Z,3.31
2018-03-07T20:08:33.227Z,3.37
2018-03-07T20:11:01.052Z,3.41
2018-03-07T20:13:28.887Z,3.39
2018-03-07T20:15:56.724Z,3.40
2018-03-07T20:18:24.513Z,3.30
2018-03-07T20:20:52.352Z,3.40
2018-03-07T20:23:20.086Z,3.40
2018-03-07T20:25:47.960Z,3.35
2018-03-07T20:28:15.762Z,3.41
2018-03-07T20:30:43.660Z,3.35
2018-03-07T20:33:12.319Z,3.33
2018-03-07T20:35:40.113Z,3.42
2018-03-07T20:38:07.787Z,3.43
2018-03-07T20:40:35.478Z,3.46
2018-03-07T20:43:03.174Z,3.47
2018-03-07T20:45:30.851Z,3.43
2018-03-07T20:47:58.500Z,3.42
2018-03-07T20:50:26.227Z,3.46
2018-03-07T20:52:53.927Z,3.45
2018-03-07T20:55:21.663Z,3.42
2018-03-07T20:57:49.341Z,3.42
2018-03-07T21:00:17.048Z,3.39
2018-03-07T21:02:44.718Z,3.47
2018-03-07T21:05:12.438Z,3.47
2018-03-07T21:07:40.106Z,3.37
2018-03-07T21:10:07.838Z,3.31
2018-03-07T21:12:35.539Z,3.41
2018-03-07T21:15:03.274Z,3.37
2018-03-07T21:17:30.985Z,3.41
2018-03-07T21:19:58.688Z,3.48
2018-03-07T21:22:26.324Z,3.50
2018-03-07T21:24:54.044Z,3.52
2018-03-07T21:27:21.735Z,3.46
2018-03-07T21:29:49.491Z,3.46
2018-03-07T21:32:17.184Z,3.44
2018-03-07T21:34:44.816Z,3.43
2018-03-07T21:37:12.522Z,3.31
2018-03-07T21:39:40.240Z,3.39
2018-03-07T21:42:08.148Z,3.45
2018-03-07T21:44:35.869Z,3.36
2018-03-07T21:47:03.627Z,3.44
2018-03-07T21:49:31.328Z,3.32
2018-03-07T21:51:59.055Z,3.34
2018-03-07T21:54:26.795Z,3.35
2018-03-07T21:56:54.480Z,3.36
2018-03-07T21:59:22.116Z,3.38
2018-03-07T22:01:49.860Z,3.40
2018-03-07T22:04:17.539Z,3.38
2018-03-07T22:06:45.322Z,3.42
2018-03-07T22:09:13.335Z,3.48
2018-03-07T22:11:41.055Z,3.57
2018-03-07T22:14:08.763Z,3.56
2018-03-07T22:16:36.492Z,3.53
2018-03-07T22:19:04.178Z,3.52
2018-03-07T22:21:31.867Z,3.54
2018-03-07T22:23:59.510Z,3.54
2018-03-07T22:26:27.258Z,3.53
2018-03-07T22:28:54.954Z,3.48
2018-03-07T22:31:22.842Z,3.47
2018-03-07T22:33:51.346Z,3.50
2018-03-07T22:36:19.075Z,3.44
2018-03-07T22:38:46.811Z,3.48
2018-03-07T22:41:14.543Z,3.49
2018-03-07T22:43:42.239Z,3.46
2018-03-07T22:46:09.941Z,3.48
2018-03-07T22:48:37.662Z,3.48
2018-03-07T22:51:05.369Z,3.49
2018-03-07T22:53:33.030Z,3.47
2018-03-07T22:56:00.722Z,3.46
2018-03-07T22:58:28.419Z,3.51
2018-03-07T23:00:56.139Z,3.54
2018-03-07T23:03:23.850Z,3.49
2018-03-07T23:05:51.542Z,3.40
2018-03-07T23:08:19.355Z,3.33
2018-03-07T23:10:47.039Z,3.25
2018-03-07T23:13:14.823Z,3.26
2018-03-07T23:15:42.634Z,3.25
2018-03-07T23:18:10.851Z,3.26
2018-03-07T23:20:38.548Z,3.26
2018-03-07T23:23:06.222Z,3.25
2018-03-07T23:25:33.895Z,3.20
2018-03-07T23:28:01.539Z,3.24
2018-03-07T23:30:29.228Z,3.22
2018-03-07T23:32:56.888Z,3.20
2018-03-07T23:35:24.650Z,3.24
2018-03-07T23:37:52.318Z,3.26
2018-03-07T23:40:20.035Z,3.23
2018-03-07T23:42:47.690Z,3.27
2018-03-07T23:45:15.442Z,3.24
2018-03-07T23:47:43.173Z,3.25
2018-03-07T23:50:10.857Z,3.29
2018-03-07T23:52:38.625Z,3.31
2018-03-07T23:55:06.325Z,3.31
2018-03-07T23:57:34.265Z,3.28
